sensor_id;sensor_type;location;lat;lon;timestamp;temperature;humidity
76838;DHT22;65797;47.352;8.164;2024-01-27T00:15:09;3.80;17.30
76838;DHT22;65797;47.352;8.164;2024-01-27T00:23:13;3.70;1.00
76838;DHT22;65797;47.352;8.164;2024-01-27T00:25:38;3.70;1.00
76838;DHT22;65797;47.352;8.164;2024-01-27T00:28:04;3.80;99.90
76838;DHT22;65797;47.352;8.164;2024-01-27T00:30:30;3.80;99.90
76838;DHT22;65797;47.352;8.164;2024-01-27T00:32:55;3.70;99.90
76838;DHT22;65797;47.352;8.164;2024-01-27T00:35:21;3.60;1.00
76838;DHT22;65797;47.352;8.164;2024-01-27T00:37:47;3.60;1.00
76838;DHT22;65797;47.352;8.164;2024-01-27T00:40:13;3.50;1.00
76838;DHT22;65797;47.352;8.164;2024-01-27T00:42:40;3.50;1.00
76838;DHT22;65797;47.352;8.164;2024-01-27T00:45:06;3.50;1.00
76838;DHT22;65797;47.352;8.164;2024-01-27T00:47:33;3.50;1.00
76838;DHT22;65797;47.352;8.164;2024-01-27T00:50:00;3.50;99.90
76838;DHT22;65797;47.352;8.164;2024-01-27T00:52:27;3.50;99.90
76838;DHT22;65797;47.352;8.164;2024-01-27T00:54:52;3.40;93.80
76838;DHT22;65797;47.352;8.164;2024-01-27T00:57:18;3.40;1.00
76838;DHT22;65797;47.352;8.164;2024-01-27T00:59:45;3.40;1.00
76838;DHT22;65797;47.352;8.164;2024-01-27T01:02:11;3.30;1.00
76838;DHT22;65797;47.352;8.164;2024-01-27T01:04:37;3.30;99.90
76838;DHT22;65797;47.352;8.164;2024-01-27T01:07:02;3.20;99.90
76838;DHT22;65797;47.352;8.164;2024-01-27T01:09:28;3.10;55.10
76838;DHT22;65797;47.352;8.164;2024-01-27T01:11:54;3.10;99.90
76838;DHT22;65797;47.352;8.164;2024-01-27T01:14:20;3.10;1.00
76838;DHT22;65797;47.352;8.164;2024-01-27T01:16:45;3.10;1.00
76838;DHT22;65797;47.352;8.164;2024-01-27T01:19:11;3.10;1.00
76838;DHT22;65797;47.352;8.164;2024-01-27T01:21:37;3.00;99.90
76838;DHT22;65797;47.352;8.164;2024-01-27T01:24:03;3.00;99.90
76838;DHT22;65797;47.352;8.164;2024-01-27T01:26:28;2.90;99.90
76838;DHT22;65797;47.352;8.164;2024-01-27T01:28:54;2.90;99.90
76838;DHT22;65797;47.352;8.164;2024-01-27T01:31:20;2.80;76.10
76838;DHT22;65797;47.352;8.164;2024-01-27T01:33:45;2.80;1.00
76838;DHT22;65797;47.352;8.164;2024-01-27T01:36:11;2.70;1.00
76838;DHT22;65797;47.352;8.164;2024-01-27T01:38:37;2.80;99.90
76838;DHT22;65797;47.352;8.164;2024-01-27T01:41:02;2.70;1.00
76838;DHT22;65797;47.352;8.164;2024-01-27T01:43:28;2.60;1.00
76838;DHT22;65797;47.352;8.164;2024-01-27T01:45:54;2.60;1.00
76838;DHT22;65797;47.352;8.164;2024-01-27T01:48:20;2.60;99.90
76838;DHT22;65797;47.352;8.164;2024-01-27T01:50:46;2.60;99.90
76838;DHT22;65797;47.352;8.164;2024-01-27T01:53:13;2.50;99.90
76838;DHT22;65797;47.352;8.164;2024-01-27T01:55:39;2.60;1.00
76838;DHT22;65797;47.352;8.164;2024-01-27T01:58:06;2.70;99.90
76838;DHT22;65797;47.352;8.164;2024-01-27T02:00:32;2.70;99.90
76838;DHT22;65797;47.352;8.164;2024-01-27T02:02:58;2.70;99.90
76838;DHT22;65797;47.352;8.164;2024-01-27T02:05:24;2.70;99.90
76838;DHT22;65797;47.352;8.164;2024-01-27T02:07:50;2.70;99.90
76838;DHT22;65797;47.352;8.164;2024-01-27T02:10:17;2.70;1.00
76838;DHT22;65797;47.352;8.164;2024-01-27T02:12:44;2.70;1.00
76838;DHT22;65797;47.352;8.164;2024-01-27T02:15:11;2.60;1.00
76838;DHT22;65797;47.352;8.164;2024-01-27T02:17:38;2.60;1.00
76838;DHT22;65797;47.352;8.164;2024-01-27T02:20:05;2.50;1.00
76838;DHT22;65797;47.352;8.164;2024-01-27T02:22:32;2.60;1.00
76838;DHT22;65797;47.352;8.164;2024-01-27T02:24:58;2.60;1.00
76838;DHT22;65797;47.352;8.164;2024-01-27T02:27:24;2.50;1.00
76838;DHT22;65797;47.352;8.164;2024-01-27T02:29:50;2.50;1.00
76838;DHT22;65797;47.352;8.164;2024-01-27T02:32:16;2.50;1.00
76838;DHT22;65797;47.352;8.164;2024-01-27T02:34:41;2.50;1.00
76838;DHT22;65797;47.352;8.164;2024-01-27T02:37:07;2.50;1.00
76838;DHT22;65797;47.352;8.164;2024-01-27T02:39:32;2.60;99.90
76838;DHT22;65797;47.352;8.164;2024-01-27T02:41:58;2.50;99.90
76838;DHT22;65797;47.352;8.164;2024-01-27T02:44:24;2.50;99.90
76838;DHT22;65797;47.352;8.164;2024-01-27T02:46:50;2.40;99.90
76838;DHT22;65797;47.352;8.164;2024-01-27T02:49:15;2.40;32.30
76838;DHT22;65797;47.352;8.164;2024-01-27T02:51:41;2.40;99.90
76838;DHT22;65797;47.352;8.164;2024-01-27T02:54:07;2.40;99.90
76838;DHT22;65797;47.352;8.164;2024-01-27T02:56:32;2.40;1.00
76838;DHT22;65797;47.352;8.164;2024-01-27T02:58:58;2.40;1.00
76838;DHT22;65797;47.352;8.164;2024-01-27T03:01:23;2.50;1.00
76838;DHT22;65797;47.352;8.164;2024-01-27T03:03:50;2.50;1.00
76838;DHT22;65797;47.352;8.164;2024-01-27T03:06:15;2.50;99.90
76838;DHT22;65797;47.352;8.164;2024-01-27T03:08:41;2.60;99.90
76838;DHT22;65797;47.352;8.164;2024-01-27T03:11:07;2.60;99.90
76838;DHT22;65797;47.352;8.164;2024-01-27T03:13:32;2.60;99.90
76838;DHT22;65797;47.352;8.164;2024-01-27T03:15:58;2.70;99.90
76838;DHT22;65797;47.352;8.164;2024-01-27T03:20:59;2.70;1.00
76838;DHT22;65797;47.352;8.164;2024-01-27T03:23:25;2.70;1.00
76838;DHT22;65797;47.352;8.164;2024-01-27T03:25:50;2.70;99.90
76838;DHT22;65797;47.352;8.164;2024-01-27T03:28:16;2.70;1.00
76838;DHT22;65797;47.352;8.164;2024-01-27T03:30:42;2.70;1.00
76838;DHT22;65797;47.352;8.164;2024-01-27T03:33:07;2.70;1.00
76838;DHT22;65797;47.352;8.164;2024-01-27T03:35:36;2.80;1.00
76838;DHT22;65797;47.352;8.164;2024-01-27T03:38:01;2.80;1.00
76838;DHT22;65797;47.352;8.164;2024-01-27T03:40:27;2.80;32.90
76838;DHT22;65797;47.352;8.164;2024-01-27T03:42:53;2.80;32.70
76838;DHT22;65797;47.352;8.164;2024-01-27T03:45:18;2.90;92.10
76838;DHT22;65797;47.352;8.164;2024-01-27T03:47:44;2.90;99.90
76838;DHT22;65797;47.352;8.164;2024-01-27T03:50:10;2.90;99.90
76838;DHT22;65797;47.352;8.164;2024-01-27T03:52:36;2.90;99.90
76838;DHT22;65797;47.352;8.164;2024-01-27T03:55:01;2.90;99.90
76838;DHT22;65797;47.352;8.164;2024-01-27T03:57:27;2.90;99.90
76838;DHT22;65797;47.352;8.164;2024-01-27T03:59:53;2.90;99.90
76838;DHT22;65797;47.352;8.164;2024-01-27T04:02:18;3.00;1.00
76838;DHT22;65797;47.352;8.164;2024-01-27T04:04:44;3.00;1.00
76838;DHT22;65797;47.352;8.164;2024-01-27T04:07:10;3.00;1.00
76838;DHT22;65797;47.352;8.164;2024-01-27T04:09:35;3.00;1.00
76838;DHT22;65797;47.352;8.164;2024-01-27T04:12:01;3.00;1.00
76838;DHT22;65797;47.352;8.164;2024-01-27T04:14:27;3.10;1.00
76838;DHT22;65797;47.352;8.164;2024-01-27T04:16:52;3.10;1.00
76838;DHT22;65797;47.352;8.164;2024-01-27T04:19:21;3.20;1.00
76838;DHT22;65797;47.352;8.164;2024-01-27T04:21:47;3.20;1.00
76838;DHT22;65797;47.352;8.164;2024-01-27T04:24:13;3.20;1.00
76838;DHT22;65797;47.352;8.164;2024-01-27T04:26:38;3.20;1.00
76838;DHT22;65797;47.352;8.164;2024-01-27T04:29:04;3.20;1.00
76838;DHT22;65797;47.352;8.164;2024-01-27T04:31:29;3.20;1.00
76838;DHT22;65797;47.352;8.164;2024-01-27T04:33:57;3.30;1.00
76838;DHT22;65797;47.352;8.164;2024-01-27T04:36:30;3.30;1.00
76838;DHT22;65797;47.352;8.164;2024-01-27T04:38:56;3.30;1.00
76838;DHT22;65797;47.352;8.164;2024-01-27T04:41:22;3.40;1.00
76838;DHT22;65797;47.352;8.164;2024-01-27T04:43:47;3.30;1.00
76838;DHT22;65797;47.352;8.164;2024-01-27T04:46:13;3.30;1.00
76838;DHT22;65797;47.352;8.164;2024-01-27T04:48:39;3.30;1.00
76838;DHT22;65797;47.352;8.164;2024-01-27T04:51:04;3.30;1.00
76838;DHT22;65797;47.352;8.164;2024-01-27T04:53:30;3.30;1.00
76838;DHT22;65797;47.352;8.164;2024-01-27T04:55:56;3.30;1.00
76838;DHT22;65797;47.352;8.164;2024-01-27T04:58:23;3.30;1.00
76838;DHT22;65797;47.352;8.164;2024-01-27T05:00:49;3.30;1.00
76838;DHT22;65797;47.352;8.164;2024-01-27T05:03:14;3.30;1.00
76838;DHT22;65797;47.352;8.164;2024-01-27T05:05:41;3.20;1.00
76838;DHT22;65797;47.352;8.164;2024-01-27T05:08:08;3.20;1.00
76838;DHT22;65797;47.352;8.164;2024-01-27T05:10:33;3.20;1.00
76838;DHT22;65797;47.352;8.164;2024-01-27T05:12:59;3.20;1.00
76838;DHT22;65797;47.352;8.164;2024-01-27T05:15:25;3.20;1.00
76838;DHT22;65797;47.352;8.164;2024-01-27T05:17:51;3.10;1.00
76838;DHT22;65797;47.352;8.164;2024-01-27T05:20:17;3.10;1.00
76838;DHT22;65797;47.352;8.164;2024-01-27T05:22:43;3.10;1.00
76838;DHT22;65797;47.352;8.164;2024-01-27T05:25:09;3.10;1.00
76838;DHT22;65797;47.352;8.164;2024-01-27T05:27:37;3.00;1.00
76838;DHT22;65797;47.352;8.164;2024-01-27T05:30:04;3.00;1.00
76838;DHT22;65797;47.352;8.164;2024-01-27T05:32:30;3.00;1.00
76838;DHT22;65797;47.352;8.164;2024-01-27T05:34:56;3.00;1.00
76838;DHT22;65797;47.352;8.164;2024-01-27T05:37:21;3.00;1.00
76838;DHT22;65797;47.352;8.164;2024-01-27T05:39:47;3.00;1.00
76838;DHT22;65797;47.352;8.164;2024-01-27T05:42:13;2.90;1.00
76838;DHT22;65797;47.352;8.164;2024-01-27T05:44:38;2.90;1.00
76838;DHT22;65797;47.352;8.164;2024-01-27T05:47:06;2.90;1.00
76838;DHT22;65797;47.352;8.164;2024-01-27T05:49:32;2.90;1.00
76838;DHT22;65797;47.352;8.164;2024-01-27T05:51:58;2.90;1.00
76838;DHT22;65797;47.352;8.164;2024-01-27T05:54:24;2.80;1.00
76838;DHT22;65797;47.352;8.164;2024-01-27T05:56:50;2.80;99.90
76838;DHT22;65797;47.352;8.164;2024-01-27T05:59:15;2.80;99.90
76838;DHT22;65797;47.352;8.164;2024-01-27T06:01:41;2.70;1.00
76838;DHT22;65797;47.352;8.164;2024-01-27T06:04:09;2.70;99.90
76838;DHT22;65797;47.352;8.164;2024-01-27T06:06:37;2.70;99.90
76838;DHT22;65797;47.352;8.164;2024-01-27T06:09:03;2.60;99.90
76838;DHT22;65797;47.352;8.164;2024-01-27T06:11:29;2.60;99.90
76838;DHT22;65797;47.352;8.164;2024-01-27T06:13:55;2.50;99.90
76838;DHT22;65797;47.352;8.164;2024-01-27T06:16:21;2.50;99.90
76838;DHT22;65797;47.352;8.164;2024-01-27T06:18:47;2.50;99.90
76838;DHT22;65797;47.352;8.164;2024-01-27T06:21:12;2.40;99.90
76838;DHT22;65797;47.352;8.164;2024-01-27T06:23:38;2.40;99.90
76838;DHT22;65797;47.352;8.164;2024-01-27T06:26:07;2.40;99.90
76838;DHT22;65797;47.352;8.164;2024-01-27T06:28:33;2.40;42.10
76838;DHT22;65797;47.352;8.164;2024-01-27T06:31:00;2.40;3.70
76838;DHT22;65797;47.352;8.164;2024-01-27T06:33:26;2.30;1.00
76838;DHT22;65797;47.352;8.164;2024-01-27T06:35:52;2.20;1.00
76838;DHT22;65797;47.352;8.164;2024-01-27T06:38:18;2.20;1.00
76838;DHT22;65797;47.352;8.164;2024-01-27T06:40:43;2.20;1.00
76838;DHT22;65797;47.352;8.164;2024-01-27T06:43:14;2.20;1.00
76838;DHT22;65797;47.352;8.164;2024-01-27T06:45:39;2.10;99.90
76838;DHT22;65797;47.352;8.164;2024-01-27T06:48:06;2.10;99.90
76838;DHT22;65797;47.352;8.164;2024-01-27T06:50:32;2.10;99.90
76838;DHT22;65797;47.352;8.164;2024-01-27T06:52:58;2.00;99.90
76838;DHT22;65797;47.352;8.164;2024-01-27T06:55:24;2.00;99.90
76838;DHT22;65797;47.352;8.164;2024-01-27T06:57:50;1.90;99.90
76838;DHT22;65797;47.352;8.164;2024-01-27T07:00:17;1.90;99.90
76838;DHT22;65797;47.352;8.164;2024-01-27T07:02:43;1.90;99.90
76838;DHT22;65797;47.352;8.164;2024-01-27T07:05:09;1.90;99.90
76838;DHT22;65797;47.352;8.164;2024-01-27T07:07:35;1.90;99.90
76838;DHT22;65797;47.352;8.164;2024-01-27T07:10:01;1.90;99.90
76838;DHT22;65797;47.352;8.164;2024-01-27T07:12:27;1.80;99.90
76838;DHT22;65797;47.352;8.164;2024-01-27T07:14:53;1.80;99.90
76838;DHT22;65797;47.352;8.164;2024-01-27T07:17:22;1.80;99.90
76838;DHT22;65797;47.352;8.164;2024-01-27T08:56:53;8.90;41.90
76838;DHT22;65797;47.352;8.164;2024-01-27T08:59:19;9.50;1.00
76838;DHT22;65797;47.352;8.164;2024-01-27T09:01:44;9.60;1.00
76838;DHT22;65797;47.352;8.164;2024-01-27T09:04:10;9.60;1.00
76838;DHT22;65797;47.352;8.164;2024-01-27T09:09:11;9.70;99.90
76838;DHT22;65797;47.352;8.164;2024-01-27T09:11:37;10.10;99.90
76838;DHT22;65797;47.352;8.164;2024-01-27T09:14:03;10.10;99.90
76838;DHT22;65797;47.352;8.164;2024-01-27T09:16:30;10.30;99.90
76838;DHT22;65797;47.352;8.164;2024-01-27T09:18:56;10.30;99.90
76838;DHT22;65797;47.352;8.164;2024-01-27T09:21:31;10.50;99.90
76838;DHT22;65797;47.352;8.164;2024-01-27T09:23:58;10.60;99.90
76838;DHT22;65797;47.352;8.164;2024-01-27T09:26:24;10.50;99.90
76838;DHT22;65797;47.352;8.164;2024-01-27T09:28:50;10.10;99.90
76838;DHT22;65797;47.352;8.164;2024-01-27T10:51:56;10.90;99.90
76838;DHT22;65797;47.352;8.164;2024-01-27T10:56:58;10.40;99.90
76838;DHT22;65797;47.352;8.164;2024-01-27T12:35:31;11.50;99.90
76838;DHT22;65797;47.352;8.164;2024-01-27T12:43:07;11.30;99.90
76838;DHT22;65797;47.352;8.164;2024-01-27T12:45:33;11.50;99.90
76838;DHT22;65797;47.352;8.164;2024-01-27T12:48:00;11.80;99.90
76838;DHT22;65797;47.352;8.164;2024-01-27T12:50:27;11.50;99.90
76838;DHT22;65797;47.352;8.164;2024-01-27T12:52:54;12.10;99.90
76838;DHT22;65797;47.352;8.164;2024-01-27T15:32:01;9.60;99.90
76838;DHT22;65797;47.352;8.164;2024-01-27T15:39:40;9.50;99.90
76838;DHT22;65797;47.352;8.164;2024-01-27T15:42:08;9.40;99.90
76838;DHT22;65797;47.352;8.164;2024-01-27T15:44:34;9.40;99.90
76838;DHT22;65797;47.352;8.164;2024-01-27T15:46:59;9.30;99.90
76838;DHT22;65797;47.352;8.164;2024-01-27T15:49:25;9.30;99.90
76838;DHT22;65797;47.352;8.164;2024-01-27T15:51:52;9.20;99.90
76838;DHT22;65797;47.352;8.164;2024-01-27T15:54:19;9.10;99.90
76838;DHT22;65797;47.352;8.164;2024-01-27T15:56:44;9.00;99.90
76838;DHT22;65797;47.352;8.164;2024-01-27T15:59:12;8.90;99.90
76838;DHT22;65797;47.352;8.164;2024-01-27T16:01:42;8.90;99.90
76838;DHT22;65797;47.352;8.164;2024-01-27T16:04:08;8.80;99.90
76838;DHT22;65797;47.352;8.164;2024-01-27T16:06:39;8.80;99.90
76838;DHT22;65797;47.352;8.164;2024-01-27T16:09:06;8.70;99.90
76838;DHT22;65797;47.352;8.164;2024-01-27T16:14:07;8.60;99.90
76838;DHT22;65797;47.352;8.164;2024-01-27T16:16:34;8.50;99.90
76838;DHT22;65797;47.352;8.164;2024-01-27T16:19:00;8.40;99.90
76838;DHT22;65797;47.352;8.164;2024-01-27T16:21:25;8.40;99.90
76838;DHT22;65797;47.352;8.164;2024-01-27T16:26:27;8.30;1.00
76838;DHT22;65797;47.352;8.164;2024-01-27T16:28:53;8.20;1.00
76838;DHT22;65797;47.352;8.164;2024-01-27T16:31:19;8.20;1.00
76838;DHT22;65797;47.352;8.164;2024-01-27T16:33:45;8.10;1.00
76838;DHT22;65797;47.352;8.164;2024-01-27T16:36:10;8.00;1.00
76838;DHT22;65797;47.352;8.164;2024-01-27T16:38:36;8.00;1.00
76838;DHT22;65797;47.352;8.164;2024-01-27T16:41:02;8.00;1.00
76838;DHT22;65797;47.352;8.164;2024-01-27T16:43:28;7.90;1.00
76838;DHT22;65797;47.352;8.164;2024-01-27T16:45:54;7.90;1.00
76838;DHT22;65797;47.352;8.164;2024-01-27T16:48:20;7.80;1.00
76838;DHT22;65797;47.352;8.164;2024-01-27T16:50:46;7.80;1.00
76838;DHT22;65797;47.352;8.164;2024-01-27T16:53:12;7.80;1.00
76838;DHT22;65797;47.352;8.164;2024-01-27T16:55:37;7.70;1.00
76838;DHT22;65797;47.352;8.164;2024-01-27T16:58:05;7.70;1.00
76838;DHT22;65797;47.352;8.164;2024-01-27T17:00:31;7.60;1.00
76838;DHT22;65797;47.352;8.164;2024-01-27T17:02:57;7.60;1.00
76838;DHT22;65797;47.352;8.164;2024-01-27T17:05:22;7.50;1.00
76838;DHT22;65797;47.352;8.164;2024-01-27T17:07:48;7.40;1.00
76838;DHT22;65797;47.352;8.164;2024-01-27T17:10:14;7.40;1.00
76838;DHT22;65797;47.352;8.164;2024-01-27T17:12:40;7.40;1.00
76838;DHT22;65797;47.352;8.164;2024-01-27T17:15:06;7.30;1.00
76838;DHT22;65797;47.352;8.164;2024-01-27T17:17:33;7.20;1.00
76838;DHT22;65797;47.352;8.164;2024-01-27T17:19:59;7.10;1.00
76838;DHT22;65797;47.352;8.164;2024-01-27T17:22:25;7.00;1.00
76838;DHT22;65797;47.352;8.164;2024-01-27T17:24:51;7.00;1.00
76838;DHT22;65797;47.352;8.164;2024-01-27T17:27:18;6.90;1.00
76838;DHT22;65797;47.352;8.164;2024-01-27T17:29:44;6.90;1.00
76838;DHT22;65797;47.352;8.164;2024-01-27T17:32:10;6.80;1.00
76838;DHT22;65797;47.352;8.164;2024-01-27T17:34:36;6.80;1.00
76838;DHT22;65797;47.352;8.164;2024-01-27T17:37:01;6.80;1.00
76838;DHT22;65797;47.352;8.164;2024-01-27T17:39:28;6.70;1.00
76838;DHT22;65797;47.352;8.164;2024-01-27T17:41:53;6.60;14.80
76838;DHT22;65797;47.352;8.164;2024-01-27T17:44:19;6.60;1.00
76838;DHT22;65797;47.352;8.164;2024-01-27T17:46:45;6.50;1.00
76838;DHT22;65797;47.352;8.164;2024-01-27T17:49:11;6.40;46.00
76838;DHT22;65797;47.352;8.164;2024-01-27T17:51:36;6.30;99.90
76838;DHT22;65797;47.352;8.164;2024-01-27T17:54:05;6.30;99.90
76838;DHT22;65797;47.352;8.164;2024-01-27T17:56:31;6.30;99.90
76838;DHT22;65797;47.352;8.164;2024-01-27T17:58:56;6.40;1.00
76838;DHT22;65797;47.352;8.164;2024-01-27T18:01:22;6.50;99.90
76838;DHT22;65797;47.352;8.164;2024-01-27T18:03:48;6.40;1.00
76838;DHT22;65797;47.352;8.164;2024-01-27T18:06:14;6.30;1.00
76838;DHT22;65797;47.352;8.164;2024-01-27T18:08:40;6.20;50.50
76838;DHT22;65797;47.352;8.164;2024-01-27T18:11:06;6.10;22.30
76838;DHT22;65797;47.352;8.164;2024-01-27T18:13:31;6.00;99.90
76838;DHT22;65797;47.352;8.164;2024-01-27T18:15:57;6.00;99.90
76838;DHT22;65797;47.352;8.164;2024-01-27T18:21:00;5.90;99.90
76838;DHT22;65797;47.352;8.164;2024-01-27T18:23:26;5.90;99.90
76838;DHT22;65797;47.352;8.164;2024-01-27T18:25:52;5.90;99.90
76838;DHT22;65797;47.352;8.164;2024-01-27T18:28:17;5.80;99.90
76838;DHT22;65797;47.352;8.164;2024-01-27T18:30:43;5.80;99.90
76838;DHT22;65797;47.352;8.164;2024-01-27T18:33:09;5.80;99.90
76838;DHT22;65797;47.352;8.164;2024-01-27T18:35:35;5.70;99.90
76838;DHT22;65797;47.352;8.164;2024-01-27T18:38:01;5.60;99.90
76838;DHT22;65797;47.352;8.164;2024-01-27T18:40:26;5.50;99.90
76838;DHT22;65797;47.352;8.164;2024-01-27T18:42:52;5.50;1.00
76838;DHT22;65797;47.352;8.164;2024-01-27T18:45:18;5.40;99.90
76838;DHT22;65797;47.352;8.164;2024-01-27T18:47:44;5.40;1.00
76838;DHT22;65797;47.352;8.164;2024-01-27T18:50:10;5.40;1.00
76838;DHT22;65797;47.352;8.164;2024-01-27T18:52:40;5.30;99.90
76838;DHT22;65797;47.352;8.164;2024-01-27T18:55:06;5.20;1.00
76838;DHT22;65797;47.352;8.164;2024-01-27T18:57:37;5.30;1.00
76838;DHT22;65797;47.352;8.164;2024-01-27T19:00:03;5.30;1.00
76838;DHT22;65797;47.352;8.164;2024-01-27T19:02:30;5.40;99.90
76838;DHT22;65797;47.352;8.164;2024-01-27T19:04:56;5.30;1.00
76838;DHT22;65797;47.352;8.164;2024-01-27T19:07:23;5.20;99.90
76838;DHT22;65797;47.352;8.164;2024-01-27T19:09:49;5.20;99.90
76838;DHT22;65797;47.352;8.164;2024-01-27T19:12:14;5.10;99.90
76838;DHT22;65797;47.352;8.164;2024-01-27T19:14:40;5.00;99.90
76838;DHT22;65797;47.352;8.164;2024-01-27T19:17:06;5.00;99.90
76838;DHT22;65797;47.352;8.164;2024-01-27T19:19:32;5.00;99.90
76838;DHT22;65797;47.352;8.164;2024-01-27T19:21:58;4.90;99.90
76838;DHT22;65797;47.352;8.164;2024-01-27T19:24:24;4.90;99.90
76838;DHT22;65797;47.352;8.164;2024-01-27T19:26:50;4.80;99.90
76838;DHT22;65797;47.352;8.164;2024-01-27T19:31:51;4.50;99.90
76838;DHT22;65797;47.352;8.164;2024-01-27T19:34:16;4.50;1.00
76838;DHT22;65797;47.352;8.164;2024-01-27T19:36:42;4.50;1.00
76838;DHT22;65797;47.352;8.164;2024-01-27T19:39:08;4.40;1.00
76838;DHT22;65797;47.352;8.164;2024-01-27T19:41:35;4.40;1.00
76838;DHT22;65797;47.352;8.164;2024-01-27T19:44:01;4.40;1.00
76838;DHT22;65797;47.352;8.164;2024-01-27T19:46:27;4.40;1.00
76838;DHT22;65797;47.352;8.164;2024-01-27T19:48:53;4.40;1.00
76838;DHT22;65797;47.352;8.164;2024-01-27T19:51:18;4.30;1.00
76838;DHT22;65797;47.352;8.164;2024-01-27T19:53:45;4.20;1.00
76838;DHT22;65797;47.352;8.164;2024-01-27T19:56:10;4.20;99.90
76838;DHT22;65797;47.352;8.164;2024-01-27T19:58:36;4.20;99.90
76838;DHT22;65797;47.352;8.164;2024-01-27T20:01:02;4.10;99.90
76838;DHT22;65797;47.352;8.164;2024-01-27T20:03:28;4.10;99.90
76838;DHT22;65797;47.352;8.164;2024-01-27T20:05:54;4.10;99.90
76838;DHT22;65797;47.352;8.164;2024-01-27T20:08:19;4.10;1.00
76838;DHT22;65797;47.352;8.164;2024-01-27T20:10:45;4.10;1.00
76838;DHT22;65797;47.352;8.164;2024-01-27T20:13:11;4.00;1.00
76838;DHT22;65797;47.352;8.164;2024-01-27T20:15:36;4.00;1.00
76838;DHT22;65797;47.352;8.164;2024-01-27T20:18:02;3.90;1.00
76838;DHT22;65797;47.352;8.164;2024-01-27T20:20:28;3.90;1.00
76838;DHT22;65797;47.352;8.164;2024-01-27T20:22:53;3.90;31.70
76838;DHT22;65797;47.352;8.164;2024-01-27T20:25:20;3.80;1.00
76838;DHT22;65797;47.352;8.164;2024-01-27T20:27:47;3.80;99.90
76838;DHT22;65797;47.352;8.164;2024-01-27T20:30:13;3.80;99.90
76838;DHT22;65797;47.352;8.164;2024-01-27T20:32:40;3.70;98.60
76838;DHT22;65797;47.352;8.164;2024-01-27T20:35:06;3.70;1.00
76838;DHT22;65797;47.352;8.164;2024-01-27T20:37:32;3.50;1.00
76838;DHT22;65797;47.352;8.164;2024-01-27T20:39:57;3.50;1.00
76838;DHT22;65797;47.352;8.164;2024-01-27T20:42:24;3.40;1.00
76838;DHT22;65797;47.352;8.164;2024-01-27T20:44:50;3.20;1.00
76838;DHT22;65797;47.352;8.164;2024-01-27T20:47:16;3.30;99.90
76838;DHT22;65797;47.352;8.164;2024-01-27T20:49:41;3.30;1.00
76838;DHT22;65797;47.352;8.164;2024-01-27T20:52:07;3.30;1.00
76838;DHT22;65797;47.352;8.164;2024-01-27T20:54:33;3.30;1.00
76838;DHT22;65797;47.352;8.164;2024-01-27T20:56:59;3.20;99.90
76838;DHT22;65797;47.352;8.164;2024-01-27T20:59:25;3.20;99.90
76838;DHT22;65797;47.352;8.164;2024-01-27T21:01:51;3.20;99.90
76838;DHT22;65797;47.352;8.164;2024-01-27T21:04:18;3.20;99.90
76838;DHT22;65797;47.352;8.164;2024-01-27T21:06:46;3.20;49.80
76838;DHT22;65797;47.352;8.164;2024-01-27T21:09:13;3.10;1.00
76838;DHT22;65797;47.352;8.164;2024-01-27T21:11:39;3.00;23.40
76838;DHT22;65797;47.352;8.164;2024-01-27T21:14:05;3.00;1.00
76838;DHT22;65797;47.352;8.164;2024-01-27T21:16:32;3.00;1.00
76838;DHT22;65797;47.352;8.164;2024-01-27T21:18:58;3.00;99.90
76838;DHT22;65797;47.352;8.164;2024-01-27T21:21:24;2.90;99.90
76838;DHT22;65797;47.352;8.164;2024-01-27T21:23:50;2.90;1.00
76838;DHT22;65797;47.352;8.164;2024-01-27T21:26:16;2.80;1.00
76838;DHT22;65797;47.352;8.164;2024-01-27T21:28:43;2.70;1.00
76838;DHT22;65797;47.352;8.164;2024-01-27T21:31:09;2.70;99.90
76838;DHT22;65797;47.352;8.164;2024-01-27T21:33:35;2.60;99.90
76838;DHT22;65797;47.352;8.164;2024-01-27T21:36:00;2.60;99.90
76838;DHT22;65797;47.352;8.164;2024-01-27T21:38:28;2.60;99.90
76838;DHT22;65797;47.352;8.164;2024-01-27T21:40:54;2.50;99.90
76838;DHT22;65797;47.352;8.164;2024-01-27T21:43:20;2.50;99.90
76838;DHT22;65797;47.352;8.164;2024-01-27T21:45:45;2.40;99.90
76838;DHT22;65797;47.352;8.164;2024-01-27T21:48:12;2.40;99.90
76838;DHT22;65797;47.352;8.164;2024-01-27T21:50:38;2.40;99.90
76838;DHT22;65797;47.352;8.164;2024-01-27T21:53:04;2.40;99.90
76838;DHT22;65797;47.352;8.164;2024-01-27T21:55:31;2.30;40.40
76838;DHT22;65797;47.352;8.164;2024-01-27T21:57:57;2.30;4.60
76838;DHT22;65797;47.352;8.164;2024-01-27T22:00:23;2.30;99.90
76838;DHT22;65797;47.352;8.164;2024-01-27T22:02:49;2.30;99.90
76838;DHT22;65797;47.352;8.164;2024-01-27T22:05:17;2.20;5.50
76838;DHT22;65797;47.352;8.164;2024-01-27T22:07:42;2.20;1.00
76838;DHT22;65797;47.352;8.164;2024-01-27T22:10:08;2.20;1.00
76838;DHT22;65797;47.352;8.164;2024-01-27T22:12:34;2.20;89.50
76838;DHT22;65797;47.352;8.164;2024-01-27T22:15:01;2.20;33.30
76838;DHT22;65797;47.352;8.164;2024-01-27T22:17:31;2.10;1.00
76838;DHT22;65797;47.352;8.164;2024-01-27T22:19:57;2.10;1.00
76838;DHT22;65797;47.352;8.164;2024-01-27T22:22:23;2.10;1.00
76838;DHT22;65797;47.352;8.164;2024-01-27T22:24:49;2.00;1.00
76838;DHT22;65797;47.352;8.164;2024-01-27T22:27:14;2.00;1.00
76838;DHT22;65797;47.352;8.164;2024-01-27T22:29:40;2.00;1.00
76838;DHT22;65797;47.352;8.164;2024-01-27T22:32:06;1.90;1.00
76838;DHT22;65797;47.352;8.164;2024-01-27T22:34:33;2.00;1.00
76838;DHT22;65797;47.352;8.164;2024-01-27T22:36:58;1.90;1.00
76838;DHT22;65797;47.352;8.164;2024-01-27T22:39:24;1.90;1.00
76838;DHT22;65797;47.352;8.164;2024-01-27T22:41:50;1.80;1.00
76838;DHT22;65797;47.352;8.164;2024-01-27T22:44:15;1.80;1.00
76838;DHT22;65797;47.352;8.164;2024-01-27T22:46:41;1.80;1.00
76838;DHT22;65797;47.352;8.164;2024-01-27T22:49:07;1.70;1.00
76838;DHT22;65797;47.352;8.164;2024-01-27T22:51:33;1.70;1.00
76838;DHT22;65797;47.352;8.164;2024-01-27T22:53:59;1.70;1.00
76838;DHT22;65797;47.352;8.164;2024-01-27T22:56:24;1.60;1.00
76838;DHT22;65797;47.352;8.164;2024-01-27T22:58:50;1.60;1.00
76838;DHT22;65797;47.352;8.164;2024-01-27T23:01:16;1.60;1.00
76838;DHT22;65797;47.352;8.164;2024-01-27T23:03:42;1.50;10.20
76838;DHT22;65797;47.352;8.164;2024-01-27T23:06:07;1.60;95.90
76838;DHT22;65797;47.352;8.164;2024-01-27T23:08:38;1.50;99.90
76838;DHT22;65797;47.352;8.164;2024-01-27T23:11:03;1.50;99.90
76838;DHT22;65797;47.352;8.164;2024-01-27T23:13:29;1.40;94.90
76838;DHT22;65797;47.352;8.164;2024-01-27T23:15:55;1.40;99.90
76838;DHT22;65797;47.352;8.164;2024-01-27T23:18:23;1.40;99.90
76838;DHT22;65797;47.352;8.164;2024-01-27T23:20:49;1.30;99.90
76838;DHT22;65797;47.352;8.164;2024-01-27T23:23:14;1.30;99.90
76838;DHT22;65797;47.352;8.164;2024-01-27T23:25:40;1.30;99.90
76838;DHT22;65797;47.352;8.164;2024-01-27T23:28:10;1.20;99.90
76838;DHT22;65797;47.352;8.164;2024-01-27T23:30:35;1.20;99.90
76838;DHT22;65797;47.352;8.164;2024-01-27T23:33:01;1.20;99.90
76838;DHT22;65797;47.352;8.164;2024-01-27T23:35:31;1.20;1.00
76838;DHT22;65797;47.352;8.164;2024-01-27T23:37:58;1.20;1.00
76838;DHT22;65797;47.352;8.164;2024-01-27T23:40:24;1.10;1.00
76838;DHT22;65797;47.352;8.164;2024-01-27T23:42:50;1.10;99.90